createdAt,value
2019-05-13T00:00:44.687Z,68.94
2019-05-13T00:03:15.668Z,69.01
2019-05-13T00:05:46.903Z,68.97
2019-05-13T00:08:18.135Z,68.96
2019-05-13T00:10:49.424Z,68.94
2019-05-13T00:13:20.555Z,68.90
2019-05-13T00:15:51.605Z,68.82
2019-05-13T00:18:23.532Z,68.88
2019-05-13T00:20:55.937Z,68.88
2019-05-13T00:23:28.410Z,68.93
2019-05-13T00:25:59.602Z,68.99
2019-05-13T00:28:30.931Z,69.01
2019-05-13T00:31:03.708Z,69.08
2019-05-13T00:33:34.875Z,69.09
2019-05-13T00:36:06.085Z,69.16
2019-05-13T00:38:37.378Z,69.28
2019-05-13T00:41:08.557Z,69.47
2019-05-13T00:43:39.775Z,69.51
2019-05-13T00:46:10.980Z,69.50
2019-05-13T00:48:43.983Z,69.47
2019-05-13T00:51:15.214Z,69.29
2019-05-13T00:53:46.378Z,69.25
2019-05-13T00:56:17.671Z,69.25
2019-05-13T00:58:48.855Z,69.33
2019-05-13T01:01:19.987Z,69.35
2019-05-13T01:03:53.194Z,69.29
2019-05-13T01:06:24.181Z,69.36
2019-05-13T01:08:55.265Z,69.49
2019-05-13T01:11:26.381Z,69.64
2019-05-13T01:13:57.611Z,69.65
2019-05-13T01:16:28.843Z,69.50
2019-05-13T01:19:00.048Z,69.50
2019-05-13T01:21:31.195Z,69.51
2019-05-13T01:24:03.727Z,69.58
2019-05-13T01:26:35.750Z,69.70
2019-05-13T01:29:06.809Z,69.79
2019-05-13T01:31:38.186Z,69.93
2019-05-13T01:34:09.446Z,70.00
2019-05-13T01:36:40.700Z,69.99
2019-05-13T01:39:13.913Z,70.07
2019-05-13T01:41:44.716Z,70.05
2019-05-13T01:44:15.853Z,70.01
2019-05-13T01:46:47.104Z,70.06
2019-05-13T01:49:19.781Z,70.11
2019-05-13T01:51:54.117Z,70.08
2019-05-13T01:54:25.690Z,70.19
2019-05-13T01:56:57.071Z,70.22
2019-05-13T01:59:28.316Z,70.25
2019-05-13T02:01:59.998Z,70.25
2019-05-13T02:04:33.393Z,70.31
2019-05-13T02:07:04.499Z,70.39
2019-05-13T02:09:36.186Z,70.48
2019-05-13T02:12:07.514Z,70.36
2019-05-13T02:14:38.768Z,70.42
2019-05-13T02:17:09.878Z,70.55
2019-05-13T02:19:44.088Z,70.64
2019-05-13T02:22:14.936Z,70.56
2019-05-13T02:24:47.071Z,70.63
2019-05-13T02:27:18.262Z,70.69
2019-05-13T02:29:49.320Z,70.71
2019-05-13T02:32:23.522Z,70.75
2019-05-13T02:34:53.545Z,70.67
2019-05-13T02:37:29.023Z,70.51
2019-05-13T02:39:57.608Z,70.54
2019-05-13T02:42:28.846Z,70.50
2019-05-13T02:45:03.441Z,70.45
2019-05-13T02:47:33.145Z,70.23
2019-05-13T02:50:06.651Z,69.75
2019-05-13T02:52:37.807Z,69.54
2019-05-13T02:55:12.031Z,69.46
2019-05-13T02:57:43.603Z,69.52
2019-05-13T03:00:15.600Z,69.58
2019-05-13T03:02:46.711Z,69.70
2019-05-13T03:05:17.823Z,69.77
2019-05-13T03:07:52.803Z,69.68
2019-05-13T03:10:22.500Z,69.57
2019-05-13T03:12:53.716Z,69.47
2019-05-13T03:15:26.482Z,69.22
2019-05-13T03:18:05.569Z,69.08
2019-05-13T03:20:37.498Z,69.13
2019-05-13T03:23:12.529Z,69.11
2019-05-13T03:25:43.075Z,69.12
2019-05-13T03:28:14.481Z,69.13
2019-05-13T03:30:46.469Z,69.34
2019-05-13T03:33:20.057Z,69.26
2019-05-13T03:35:55.724Z,69.11
2019-05-13T03:38:24.687Z,68.86
2019-05-13T03:40:55.813Z,68.80
2019-05-13T03:43:26.949Z,68.92
2019-05-13T03:45:58.072Z,68.88
2019-05-13T03:48:29.239Z,68.86
2019-05-13T03:51:02.724Z,68.96
2019-05-13T03:53:33.430Z,68.96
2019-05-13T03:56:04.601Z,69.10
2019-05-13T03:58:35.718Z,69.28
2019-05-13T04:01:06.871Z,69.38
2019-05-13T04:03:38.101Z,69.25
2019-05-13T04:06:13.065Z,69.09
2019-05-13T04:08:43.988Z,69.01
2019-05-13T04:11:16.475Z,69.18
2019-05-13T04:13:47.777Z,69.10
2019-05-13T04:16:19.043Z,68.83
2019-05-13T04:18:53.349Z,68.89
2019-05-13T04:21:23.074Z,69.10
2019-05-13T04:23:54.302Z,68.93
2019-05-13T04:26:25.240Z,68.32
2019-05-13T04:28:57.517Z,68.18
2019-05-13T04:31:28.629Z,67.79
2019-05-13T04:34:02.232Z,67.63
2019-05-13T04:36:32.556Z,67.30
2019-05-13T04:39:05.410Z,66.88
2019-05-13T04:41:36.488Z,66.29
2019-05-13T04:44:07.839Z,66.51
2019-05-13T04:46:39.341Z,66.54
2019-05-13T04:49:12.543Z,66.31
2019-05-13T04:51:43.392Z,66.42
2019-05-13T04:54:14.501Z,66.17
2019-05-13T04:56:46.651Z,65.54
2019-05-13T04:59:17.870Z,65.14
2019-05-13T05:02:08.961Z,64.34
2019-05-13T05:04:52.623Z,63.70
2019-05-13T05:07:43.501Z,63.38
2019-05-13T05:10:30.311Z,63.14
2019-05-13T05:13:25.634Z,62.74
2019-05-13T05:16:18.102Z,63.15
2019-05-13T05:19:02.232Z,63.11
2019-05-13T05:21:43.014Z,62.60
2019-05-13T05:24:29.378Z,62.56
2019-05-13T05:27:15.726Z,62.73
2019-05-13T05:30:06.523Z,62.88
2019-05-13T05:32:51.803Z,62.87
2019-05-13T05:35:52.033Z,62.84
2019-05-13T05:38:54.489Z,63.00
2019-05-13T05:41:27.541Z,63.23
2019-05-13T05:43:58.788Z,63.42
2019-05-13T05:46:32.354Z,64.03
2019-05-13T05:49:05.989Z,63.99
2019-05-13T05:51:38.600Z,63.71
2019-05-13T05:54:14.792Z,63.57
2019-05-13T05:56:45.059Z,63.53
2019-05-13T05:59:16.253Z,64.09
2019-05-13T06:01:47.686Z,63.97
2019-05-13T06:04:21.438Z,63.47
2019-05-13T06:06:54.769Z,63.47
2019-05-13T06:09:26.250Z,63.39
2019-05-13T06:11:57.382Z,63.44
2019-05-13T06:14:28.641Z,63.41
2019-05-13T06:17:02.636Z,62.99
2019-05-13T06:19:33.772Z,62.56
2019-05-13T06:22:04.841Z,62.43
2019-05-13T06:24:36.075Z,62.22
2019-05-13T06:27:07.215Z,62.23
2019-05-13T06:29:38.498Z,61.94
2019-05-13T06:32:19.031Z,61.76
2019-05-13T06:34:42.497Z,61.38
2019-05-13T06:37:13.790Z,61.30
2019-05-13T06:39:45.086Z,61.43
2019-05-13T06:42:16.151Z,61.51
2019-05-13T06:44:51.220Z,63.57
2019-05-13T06:47:22.708Z,63.63
2019-05-13T06:49:56.002Z,62.13
2019-05-13T06:52:27.141Z,60.98
2019-05-13T06:54:58.351Z,60.36
2019-05-13T06:57:29.554Z,60.48
2019-05-13T07:00:02.513Z,60.49
2019-05-13T07:02:33.696Z,64.01
2019-05-13T07:05:07.141Z,62.74
2019-05-13T07:07:38.337Z,59.40
2019-05-13T07:10:09.552Z,58.58
2019-05-13T07:12:41.169Z,58.95
2019-05-13T07:15:12.861Z,56.38
2019-05-13T07:17:45.693Z,57.00
2019-05-13T07:20:16.983Z,56.81
2019-05-13T07:22:48.104Z,56.30
2019-05-13T07:25:22.052Z,55.75
2019-05-13T07:27:52.204Z,55.54
2019-05-13T07:30:38.482Z,55.30
2019-05-13T07:33:12.291Z,54.75
2019-05-13T07:35:45.029Z,54.18
2019-05-13T07:38:15.543Z,54.46
2019-05-13T07:40:46.703Z,55.45
2019-05-13T07:43:17.922Z,54.62
2019-05-13T07:45:51.311Z,53.09
2019-05-13T07:48:27.479Z,52.35
2019-05-13T07:51:00.265Z,51.63
2019-05-13T07:53:27.620Z,50.21
2019-05-13T07:55:58.852Z,50.57
2019-05-13T07:58:36.168Z,49.18
2019-05-13T08:01:03.071Z,50.85
2019-05-13T08:03:34.352Z,50.98
2019-05-13T08:06:05.588Z,50.82
2019-05-13T08:08:36.946Z,47.98
2019-05-13T08:11:09.061Z,46.58
2019-05-13T08:13:41.565Z,45.80
2019-05-13T08:16:13.085Z,43.90
2019-05-13T08:18:44.135Z,45.88
2019-05-13T08:21:15.271Z,44.56
2019-05-13T08:23:46.289Z,43.26
2019-05-13T08:26:17.437Z,44.23
2019-05-13T08:29:00.068Z,44.65
2019-05-13T08:31:21.926Z,46.79
2019-05-13T08:33:53.250Z,47.19
2019-05-13T08:36:25.770Z,46.47
2019-05-13T08:38:56.844Z,44.26
2019-05-13T08:41:28.171Z,44.86
2019-05-13T08:44:01.558Z,44.38
2019-05-13T08:46:32.466Z,42.68
2019-05-13T08:49:06.813Z,43.69
2019-05-13T08:51:38.293Z,41.94
2019-05-13T08:54:11.475Z,41.56
2019-05-13T08:56:42.399Z,42.41
2019-05-13T08:59:15.119Z,41.64
2019-05-13T09:01:46.524Z,41.46
2019-05-13T09:04:17.787Z,42.06
2019-05-13T09:06:49.134Z,41.52
2019-05-13T09:09:21.997Z,42.64
2019-05-13T09:11:54.570Z,41.71
2019-05-13T09:14:25.775Z,43.31
2019-05-13T09:16:57.815Z,41.97
2019-05-13T09:19:29.088Z,41.44
2019-05-13T09:22:03.010Z,41.68
2019-05-13T09:24:37.654Z,42.78
2019-05-13T09:27:06.702Z,42.55
2019-05-13T09:29:38.052Z,42.54
2019-05-13T09:32:12.124Z,43.09
2019-05-13T09:34:47.692Z,44.29
2019-05-13T09:37:19.320Z,43.29
2019-05-13T09:39:51.675Z,42.65
2019-05-13T09:42:23.922Z,42.59
2019-05-13T09:44:55.514Z,43.05
2019-05-13T09:47:32.174Z,43.80
2019-05-13T09:50:06.313Z,41.15
2019-05-13T09:52:39.727Z,41.08
2019-05-13T09:55:24.760Z,40.65
2019-05-13T09:57:44.238Z,41.22
2019-05-13T10:00:21.611Z,41.33
2019-05-13T10:02:53.539Z,40.80
2019-05-13T10:05:27.266Z,41.37
2019-05-13T10:07:58.468Z,41.34
2019-05-13T10:10:31.925Z,40.81
2019-05-13T10:13:11.326Z,42.82
2019-05-13T10:15:38.428Z,41.39
2019-05-13T10:18:12.600Z,42.05
2019-05-13T10:20:55.281Z,40.44
2019-05-13T10:23:25.253Z,40.67
2019-05-13T10:26:03.713Z,43.80
2019-05-13T10:28:35.235Z,42.07
2019-05-13T10:31:07.948Z,44.12
2019-05-13T10:33:41.800Z,47.01
2019-05-13T10:36:15.540Z,48.36
2019-05-13T10:38:47.615Z,49.89
2019-05-13T10:41:18.555Z,50.33
2019-05-13T10:43:52.081Z,50.95
2019-05-13T10:46:22.970Z,51.33
2019-05-13T10:48:54.234Z,51.56
2019-05-13T10:51:25.582Z,51.20
2019-05-13T10:53:59.595Z,51.10
2019-05-13T10:56:32.758Z,50.89
2019-05-13T10:59:03.520Z,51.03
2019-05-13T11:01:35.059Z,50.83
2019-05-13T11:04:06.512Z,50.59
2019-05-13T11:06:37.974Z,50.35
2019-05-13T11:09:12.947Z,50.31
2019-05-13T11:11:43.738Z,50.25
2019-05-13T11:14:16.419Z,50.19
2019-05-13T11:16:51.342Z,49.72
2019-05-13T11:19:23.364Z,49.56
2019-05-13T11:21:55.981Z,49.55
2019-05-13T11:24:27.462Z,49.56
2019-05-13T11:27:02.733Z,49.26
2019-05-13T11:29:34.617Z,48.96
2019-05-13T11:32:06.002Z,48.61
2019-05-13T11:34:37.225Z,47.06
2019-05-13T11:37:08.536Z,46.36
2019-05-13T11:39:42.626Z,46.43
2019-05-13T11:42:13.579Z,48.30
2019-05-13T11:44:45.661Z,48.37
2019-05-13T11:47:16.900Z,48.44
2019-05-13T11:49:48.437Z,47.11
2019-05-13T11:52:21.891Z,48.52
2019-05-13T11:54:54.398Z,49.60
2019-05-13T11:57:25.705Z,50.04
2019-05-13T11:59:57.524Z,50.00
2019-05-13T12:02:28.793Z,49.59
2019-05-13T12:05:03.600Z,49.68
2019-05-13T12:07:33.147Z,49.96
2019-05-13T12:10:06.554Z,49.06
2019-05-13T12:12:37.859Z,46.63
2019-05-13T12:15:27.029Z,48.17
2019-05-13T12:17:43.935Z,48.41
2019-05-13T12:20:15.548Z,47.65
2019-05-13T12:22:47.485Z,48.47
2019-05-13T12:25:22.219Z,49.34
2019-05-13T12:27:52.056Z,49.37
2019-05-13T12:30:23.365Z,46.91
2019-05-13T12:32:54.857Z,49.16
2019-05-13T12:35:27.460Z,49.97
2019-05-13T12:37:59.077Z,51.26
2019-05-13T12:40:33.843Z,52.78
2019-05-13T12:43:03.225Z,53.02
2019-05-13T12:45:36.178Z,53.30
2019-05-13T12:48:07.640Z,53.55
2019-05-13T12:50:43.158Z,53.95
2019-05-13T12:53:13.591Z,54.56
2019-05-13T12:55:52.744Z,55.38
2019-05-13T12:58:19.296Z,56.13
2019-05-13T13:00:53.242Z,56.88
2019-05-13T13:03:24.238Z,57.33
2019-05-13T13:06:21.129Z,57.62
2019-05-13T13:08:42.025Z,57.76
2019-05-13T13:11:02.399Z,57.42
2019-05-13T13:13:56.841Z,57.85
2019-05-13T13:16:06.792Z,58.33
2019-05-13T13:18:43.519Z,58.23
2019-05-13T13:21:15.803Z,57.86
2019-05-13T13:23:47.077Z,57.29
2019-05-13T13:26:18.357Z,56.50
2019-05-13T13:28:55.107Z,55.77
2019-05-13T13:31:25.138Z,55.45
2019-05-13T13:33:55.855Z,55.31
2019-05-13T13:36:27.484Z,55.09
2019-05-13T13:38:59.675Z,54.86
2019-05-13T13:41:32.757Z,55.04
2019-05-13T13:44:07.340Z,55.13
2019-05-13T13:46:44.673Z,55.26
2019-05-13T13:49:13.025Z,55.37
2019-05-13T13:51:45.198Z,55.38
2019-05-13T13:54:17.101Z,55.30
2019-05-13T13:56:55.886Z,55.15
2019-05-13T13:59:25.212Z,55.19
2019-05-13T14:01:56.619Z,55.16
2019-05-13T14:04:27.996Z,55.15
2019-05-13T14:09:32.695Z,55.40
2019-05-13T14:12:06.311Z,55.04
2019-05-13T14:14:41.538Z,54.96
2019-05-13T14:17:12.874Z,54.92
2019-05-13T14:19:44.302Z,54.70
2019-05-13T14:22:15.694Z,54.40
2019-05-13T14:24:51.863Z,54.25
2019-05-13T14:27:23.431Z,53.93
2019-05-13T14:29:55.901Z,53.49
2019-05-13T14:32:27.695Z,53.02
2019-05-13T14:35:02.212Z,52.66
2019-05-13T14:37:32.052Z,52.46
2019-05-13T14:40:06.902Z,52.34
2019-05-13T14:42:38.591Z,52.31
2019-05-13T14:45:12.076Z,52.26
2019-05-13T14:47:42.791Z,52.13
2019-05-13T14:50:14.072Z,51.86
2019-05-13T14:52:45.487Z,51.62
2019-05-13T14:55:16.835Z,51.43
2019-05-13T14:57:48.359Z,51.50
2019-05-13T15:00:21.945Z,52.71
2019-05-13T15:02:55.259Z,53.14
2019-05-13T15:05:26.630Z,52.62
2019-05-13T15:07:58.489Z,52.21
2019-05-13T15:10:31.482Z,51.84
2019-05-13T15:13:03.879Z,51.76
2019-05-13T15:15:35.491Z,51.31
2019-05-13T15:18:06.951Z,51.18
2019-05-13T15:20:38.133Z,50.98
2019-05-13T15:23:11.895Z,50.74
2019-05-13T15:25:42.897Z,50.48
2019-05-13T15:28:14.342Z,50.49
2019-05-13T15:30:47.493Z,50.74
2019-05-13T15:33:22.062Z,51.08
2019-05-13T15:35:53.747Z,51.01
2019-05-13T15:38:32.176Z,51.70
2019-05-13T15:41:15.788Z,52.02
2019-05-13T15:43:47.691Z,51.84
2019-05-13T15:46:18.995Z,52.11
2019-05-13T15:48:51.376Z,53.01
2019-05-13T15:51:25.056Z,54.48
2019-05-13T15:53:57.348Z,54.63
2019-05-13T15:56:31.653Z,53.90
2019-05-13T15:59:03.342Z,52.96
2019-05-13T16:01:34.902Z,53.29
2019-05-13T16:04:06.108Z,52.74
2019-05-13T16:06:37.407Z,52.81
2019-05-13T16:09:11.489Z,52.69
2019-05-13T16:11:42.238Z,52.55
2019-05-13T16:14:13.457Z,52.52
2019-05-13T16:16:45.344Z,52.47
2019-05-13T16:19:19.875Z,52.46
2019-05-13T16:21:52.599Z,52.58
2019-05-13T16:24:24.155Z,52.59
2019-05-13T16:26:55.288Z,52.68
2019-05-13T16:29:26.391Z,53.03
2019-05-13T16:32:01.520Z,53.35
2019-05-13T16:34:32.154Z,53.79
2019-05-13T16:37:03.349Z,54.21
2019-05-13T16:39:34.484Z,54.65
2019-05-13T16:42:05.622Z,55.16
2019-05-13T16:44:36.936Z,55.34
2019-05-13T16:47:08.411Z,55.79
2019-05-13T16:49:41.120Z,56.00
2019-05-13T16:52:12.463Z,56.33
2019-05-13T16:54:43.780Z,56.72
2019-05-13T16:57:14.866Z,56.83
2019-05-13T16:59:45.974Z,56.84
2019-05-13T17:02:18.167Z,56.91
2019-05-13T17:04:49.292Z,56.99
2019-05-13T17:07:21.291Z,57.03
2019-05-13T17:09:52.424Z,57.21
2019-05-13T17:12:25.112Z,57.03
2019-05-13T17:14:56.264Z,56.66
2019-05-13T17:17:27.313Z,56.58
2019-05-13T17:19:58.604Z,56.79
2019-05-13T17:22:31.586Z,56.62
2019-05-13T17:25:02.898Z,56.55
2019-05-13T17:27:34.074Z,56.32
2019-05-13T17:30:07.982Z,56.09
2019-05-13T17:32:39.361Z,56.06
2019-05-13T17:35:11.622Z,55.98
2019-05-13T17:37:43.183Z,55.71
2019-05-13T17:40:14.412Z,55.51
2019-05-13T17:42:45.425Z,55.40
2019-05-13T17:45:18.086Z,55.08
2019-05-13T17:47:51.854Z,54.95
2019-05-13T17:50:22.412Z,54.75
2019-05-13T17:52:53.737Z,54.59
2019-05-13T17:55:24.966Z,54.99
2019-05-13T17:57:56.101Z,55.03
2019-05-13T18:00:27.296Z,54.79
2019-05-13T18:02:59.199Z,55.02
2019-05-13T18:05:31.510Z,55.41
2019-05-13T18:08:02.874Z,55.85
2019-05-13T18:10:34.091Z,56.15
2019-05-13T18:13:06.405Z,56.38
2019-05-13T18:15:37.570Z,56.76
2019-05-13T18:18:08.766Z,56.96
2019-05-13T18:20:41.524Z,57.30
2019-05-13T18:23:12.846Z,57.71
2019-05-13T18:25:44.113Z,58.61
2019-05-13T18:28:27.478Z,59.34
2019-05-13T18:30:48.105Z,60.03
2019-05-13T18:33:21.068Z,60.63
2019-05-13T18:35:52.642Z,60.93
2019-05-13T18:38:23.915Z,61.05
2019-05-13T18:40:55.071Z,61.20
2019-05-13T18:43:26.110Z,61.24
2019-05-13T18:45:57.379Z,61.31
2019-05-13T18:48:28.511Z,61.36
2019-05-13T18:51:01.290Z,61.47
2019-05-13T18:53:32.802Z,61.64
2019-05-13T18:56:04.092Z,61.59
2019-05-13T18:58:35.267Z,61.62
2019-05-13T19:01:06.476Z,61.59
2019-05-13T19:03:37.725Z,61.46
2019-05-13T19:06:11.688Z,61.47
2019-05-13T19:08:43.169Z,61.49
2019-05-13T19:11:14.420Z,61.26
2019-05-13T19:13:45.608Z,61.41
2019-05-13T19:16:16.964Z,61.43
2019-05-13T19:18:48.239Z,61.47
2019-05-13T19:21:21.740Z,61.69
2019-05-13T19:23:52.462Z,61.47
2019-05-13T19:26:23.735Z,61.48
2019-05-13T19:28:55.036Z,61.73
2019-05-13T19:31:26.289Z,61.77
2019-05-13T19:34:01.500Z,61.86
2019-05-13T19:36:32.810Z,61.86
2019-05-13T19:39:06.502Z,61.77
2019-05-13T19:41:38.920Z,61.71
2019-05-13T19:44:10.054Z,61.78
2019-05-13T19:46:42.124Z,61.94
2019-05-13T19:49:28.283Z,62.04
2019-05-13T19:51:46.544Z,62.24
2019-05-13T19:54:17.585Z,61.88
2019-05-13T19:56:48.835Z,62.16
2019-05-13T19:59:21.607Z,62.37
2019-05-13T20:01:53.885Z,62.54
2019-05-13T20:04:25.056Z,62.59
2019-05-13T20:06:56.347Z,62.96
2019-05-13T20:09:27.589Z,63.11
2019-05-13T20:11:58.810Z,63.11
2019-05-13T20:14:30.423Z,62.92
2019-05-13T20:17:01.894Z,63.22
2019-05-13T20:19:46.548Z,63.32
2019-05-13T20:22:06.461Z,63.41
2019-05-13T20:24:38.241Z,63.38
2019-05-13T20:27:11.842Z,62.95
2019-05-13T20:29:42.447Z,62.97
2019-05-13T20:32:13.618Z,63.18
2019-05-13T20:34:44.740Z,63.40
2019-05-13T20:37:15.919Z,63.31
2019-05-13T20:39:47.102Z,63.22
2019-05-13T20:42:18.394Z,63.31
2019-05-13T20:44:51.412Z,63.26
2019-05-13T20:47:22.537Z,63.19
2019-05-13T20:50:01.386Z,63.22
2019-05-13T20:52:26.666Z,63.36
2019-05-13T20:54:57.872Z,63.42
2019-05-13T20:57:29.318Z,63.38
2019-05-13T21:00:02.556Z,63.32
2019-05-13T21:02:35.272Z,63.29
2019-05-13T21:05:06.472Z,63.34
2019-05-13T21:07:37.572Z,63.34
2019-05-13T21:10:11.927Z,63.62
2019-05-13T21:12:42.584Z,63.68
2019-05-13T21:15:13.639Z,63.70
2019-05-13T21:17:44.884Z,63.57
2019-05-13T21:20:22.056Z,63.75
2019-05-13T21:22:48.958Z,63.79
2019-05-13T21:25:20.231Z,64.06
2019-05-13T21:27:51.557Z,63.88
2019-05-13T21:30:22.693Z,63.88
2019-05-13T21:32:53.956Z,64.03
2019-05-13T21:35:25.074Z,64.25
2019-05-13T21:37:56.227Z,64.25
2019-05-13T21:40:27.418Z,64.14
2019-05-13T21:42:58.731Z,64.26
2019-05-13T21:45:29.760Z,64.34
2019-05-13T21:48:01.694Z,64.53
2019-05-13T21:50:37.219Z,64.60
2019-05-13T21:53:06.054Z,64.54
2019-05-13T21:55:41.264Z,64.53
2019-05-13T21:58:14.146Z,64.78
2019-05-13T22:00:47.048Z,64.78
2019-05-13T22:03:18.335Z,65.22
2019-05-13T22:05:51.500Z,64.81
2019-05-13T22:08:22.652Z,64.81
2019-05-13T22:10:53.717Z,65.16
2019-05-13T22:13:25.379Z,65.30
2019-05-13T22:15:57.037Z,65.35
2019-05-13T22:18:28.316Z,65.26
2019-05-13T22:21:01.380Z,65.18
2019-05-13T22:23:32.355Z,65.26
2019-05-13T22:26:03.461Z,65.33
2019-05-13T22:28:34.836Z,65.36
2019-05-13T22:31:05.911Z,65.27
2019-05-13T22:33:37.137Z,65.50
2019-05-13T22:36:08.278Z,65.50
2019-05-13T22:38:39.551Z,65.41
2019-05-13T22:41:11.633Z,65.63
2019-05-13T22:43:54.549Z,65.60
2019-05-13T22:46:15.617Z,65.65
2019-05-13T22:48:46.819Z,65.65
2019-05-13T22:51:17.898Z,65.64
2019-05-13T22:53:49.062Z,65.77
2019-05-13T22:56:22.308Z,65.94
2019-05-13T22:58:53.693Z,66.00
2019-05-13T23:01:24.744Z,65.96
2019-05-13T23:03:57.101Z,66.01
2019-05-13T23:06:28.234Z,66.05
2019-05-13T23:09:01.593Z,66.11
2019-05-13T23:11:33.694Z,66.13
2019-05-13T23:14:09.556Z,66.17
2019-05-13T23:16:37.696Z,66.18
2019-05-13T23:19:11.002Z,66.22
2019-05-13T23:21:41.945Z,66.25
2019-05-13T23:24:13.169Z,66.24
2019-05-13T23:26:44.285Z,66.28
2019-05-13T23:29:15.662Z,66.35
2019-05-13T23:31:46.790Z,66.37
2019-05-13T23:34:17.950Z,66.39
2019-05-13T23:36:51.380Z,66.39
2019-05-13T23:39:21.970Z,66.33
2019-05-13T23:41:53.207Z,66.33
2019-05-13T23:44:27.991Z,66.37
2019-05-13T23:46:58.511Z,66.36
2019-05-13T23:49:31.584Z,66.34
2019-05-13T23:52:02.677Z,66.35
2019-05-13T23:54:33.828Z,66.39
2019-05-13T23:57:04.964Z,66.46
2019-05-13T23:59:36.162Z,66.46
